Time;durP1;ratioP1;P1;durP2;ratioP2;P2;SDS_P1;SDS_P2;PMS_P1;PMS_P2;Temp;Humidity;BMP_temperature;BMP_pressure;BME280_temperature;BME280_humidity;BME280_pressure;Samples;Min_cycle;Max_cycle;Signal;HPM_P1;HPM_P2
2021/10/02 00:47:04;;;;;;;8.52;3.70;;;14.80;97.20;;;;;;5011668;28;20045;-75
2021/10/02 00:49:30;;;;;;;7.70;3.42;;;14.80;97.20;;;;;;5027953;28;20033;-76
2021/10/02 00:51:56;;;;;;;6.72;3.30;;;14.80;97.20;;;;;;5018180;28;20026;-76
2021/10/02 00:54:21;;;;;;;6.45;3.47;;;14.80;97.20;;;;;;5017546;28;20026;-75
2021/10/02 00:56:48;;;;;;;6.47;4.10;;;14.80;97.20;;;;;;5018079;28;20036;-75
2021/10/02 00:59:14;;;;;;;5.78;3.47;;;14.80;97.20;;;;;;5018699;28;20073;-75
2021/10/02 01:01:50;;;;;;;6.63;3.75;;;14.80;97.20;;;;;;5018452;28;20025;-76
2021/10/02 01:04:55;;;;;;;5.80;3.75;;;14.80;97.20;;;;;;5018550;28;20040;-76
2021/10/02 01:07:35;;;;;;;7.55;3.47;;;14.80;97.20;;;;;;5018670;28;20109;-75
2021/10/02 01:10:33;;;;;;;5.75;3.75;;;14.80;97.20;;;;;;5016692;28;20200;-75
2021/10/02 01:13:20;;;;;;;8.00;3.95;;;14.90;97.20;;;;;;5032480;28;20382;-75
2021/10/02 01:16:20;;;;;;;7.95;4.15;;;14.80;97.10;;;;;;5016778;28;20379;-75
2021/10/02 01:19:15;;;;;;;10.13;4.60;;;14.80;97.10;;;;;;5018013;28;20474;-76
2021/10/02 01:22:09;;;;;;;8.80;4.85;;;14.80;97.20;;;;;;5017103;28;20474;-75
2021/10/02 01:25:14;;;;;;;7.05;4.15;;;14.80;97.20;;;;;;5017265;28;20036;-75
2021/10/02 01:27:53;;;;;;;7.50;4.30;;;14.80;97.30;;;;;;5018501;28;20045;-75
2021/10/02 01:33:24;;;;;;;7.43;4.32;;;14.80;97.30;;;;;;5018070;28;20505;-75
2021/10/02 01:36:23;;;;;;;7.07;3.97;;;14.80;97.30;;;;;;5017782;28;20071;-75
2021/10/02 01:47:13;;;;;;;9.57;4.28;;;14.80;97.30;;;;;;5017533;28;20040;-75
2021/10/02 01:49:42;;;;;;;8.05;4.20;;;14.80;97.20;;;;;;5033234;28;20497;-76
2021/10/02 01:52:09;;;;;;;7.05;5.05;;;14.80;97.20;;;;;;5017913;28;20057;-76
2021/10/02 01:54:37;;;;;;;9.40;5.03;;;14.80;97.20;;;;;;5017990;28;20437;-76
2021/10/02 01:57:05;;;;;;;9.50;4.75;;;14.80;97.20;;;;;;5017511;28;20052;-76
2021/10/02 01:59:33;;;;;;;7.45;3.85;;;14.80;97.30;;;;;;5018185;28;20492;-75
2021/10/02 02:02:00;;;;;;;8.27;4.95;;;14.90;97.30;;;;;;5014432;28;20081;-76
2021/10/02 02:04:28;;;;;;;7.38;4.43;;;14.90;97.30;;;;;;5013731;28;20033;-76
2021/10/02 02:06:57;;;;;;;8.48;4.38;;;14.80;97.20;;;;;;5014432;28;20053;-76
2021/10/02 02:09:25;;;;;;;7.65;4.88;;;14.90;97.30;;;;;;5014993;28;20029;-75
2021/10/02 02:11:53;;;;;;;8.75;4.57;;;14.90;97.20;;;;;;5013262;28;20473;-75
2021/10/02 02:14:19;;;;;;;11.55;5.25;;;14.90;97.20;;;;;;5014858;28;20030;-75
2021/10/02 02:16:47;;;;;;;7.85;4.65;;;14.90;97.30;;;;;;5029990;28;20029;-76
2021/10/02 02:19:13;;;;;;;7.32;4.32;;;14.90;97.30;;;;;;5014941;28;20026;-76
2021/10/02 02:21:39;;;;;;;9.27;5.00;;;14.90;97.30;;;;;;5030001;28;20021;-76
2021/10/02 02:24:06;;;;;;;6.70;3.90;;;14.80;97.30;;;;;;5014030;28;20386;-77
2021/10/02 02:26:32;;;;;;;10.13;5.47;;;14.80;97.30;;;;;;5029878;28;20068;-77
2021/10/02 02:28:58;;;;;;;7.25;4.18;;;14.80;97.30;;;;;;5014239;28;20076;-75
2021/10/02 02:31:24;;;;;;;7.28;3.90;;;14.80;97.30;;;;;;5029868;28;20021;-76
2021/10/02 02:33:50;;;;;;;10.05;5.10;;;14.80;97.30;;;;;;5014059;28;20029;-76
2021/10/02 02:36:16;;;;;;;8.27;5.00;;;14.80;97.30;;;;;;5014452;28;20469;-76
2021/10/02 02:38:42;;;;;;;8.48;4.47;;;14.80;97.40;;;;;;5014389;28;20030;-76
2021/10/02 02:41:07;;;;;;;8.57;4.95;;;14.80;97.40;;;;;;5012296;28;20054;-76
2021/10/02 02:43:34;;;;;;;8.43;4.60;;;14.80;97.40;;;;;;5029297;28;20061;-76
2021/10/02 02:46:25;;;;;;;8.68;4.68;;;14.80;97.30;;;;;;5013656;28;20037;-76
2021/10/02 02:49:05;;;;;;;9.77;4.65;;;14.90;97.60;;;;;;5013655;28;20022;-76
2021/10/02 02:51:41;;;;;;;8.52;5.25;;;14.90;97.30;;;;;;5029333;28;20057;-76
2021/10/02 02:54:20;;;;;;;11.23;5.43;;;14.90;97.30;;;;;;5013526;28;20029;-76
2021/10/02 02:56:50;;;;;;;8.07;4.28;;;14.80;97.20;;;;;;5029038;28;20014;-75
2021/10/02 02:59:38;;;;;;;7.88;4.75;;;14.90;97.20;;;;;;5013797;28;20074;-76
2021/10/02 03:02:06;;;;;;;9.65;4.70;;;14.90;97.20;;;;;;5013465;28;20028;-76
2021/10/02 03:04:34;;;;;;;9.50;5.07;;;14.90;97.20;;;;;;5029035;28;20374;-76
2021/10/02 03:07:03;;;;;;;9.73;5.88;;;14.90;97.50;;;;;;5028404;28;20482;-76
2021/10/02 03:09:36;;;;;;;11.18;6.00;;;14.90;97.20;;;;;;5013915;28;20030;-76
2021/10/02 03:12:02;;;;;;;9.93;5.47;;;14.80;97.20;;;;;;5013275;28;20026;-76
2021/10/02 03:14:30;;;;;;;9.93;5.75;;;14.80;97.20;;;;;;5013656;28;20029;-76
2021/10/02 03:16:56;;;;;;;6.50;4.03;;;14.90;97.20;;;;;;5013072;28;20022;-76
2021/10/02 03:19:23;;;;;;;12.68;5.72;;;14.90;97.20;;;;;;5013642;28;20018;-76
2021/10/02 03:21:53;;;;;;;13.38;7.05;;;14.80;97.20;;;;;;5013838;28;20395;-76
2021/10/02 03:24:21;;;;;;;12.32;6.57;;;14.80;97.30;;;;;;5013730;28;20176;-76
2021/10/02 03:26:49;;;;;;;10.65;5.90;;;14.80;97.30;;;;;;5013379;28;20033;-76
2021/10/02 03:29:15;;;;;;;9.65;5.38;;;14.80;97.30;;;;;;5027977;28;20476;-76
2021/10/02 03:31:41;;;;;;;10.13;5.50;;;14.70;97.40;;;;;;5013203;28;20053;-76
2021/10/02 03:34:07;;;;;;;9.85;5.88;;;14.80;97.40;;;;;;5012759;28;20156;-76
2021/10/02 03:36:34;;;;;;;8.07;4.70;;;14.70;97.40;;;;;;5013382;28;20101;-76
2021/10/02 03:39:00;;;;;;;12.50;6.13;;;14.80;97.40;;;;;;5011346;28;20121;-76
2021/10/02 03:41:26;;;;;;;10.63;5.80;;;14.80;97.40;;;;;;5027922;28;20104;-76
2021/10/02 03:43:52;;;;;;;14.73;6.07;;;14.80;97.40;;;;;;5011497;28;20040;-76
2021/10/02 03:46:18;;;;;;;12.32;6.38;;;14.80;97.40;;;;;;5027822;28;20486;-75
2021/10/02 03:48:44;;;;;;;10.30;5.47;;;14.80;97.40;;;;;;5013188;28;20081;-76
2021/10/02 03:51:10;;;;;;;11.82;5.70;;;14.80;97.40;;;;;;5027682;28;20113;-75
2021/10/02 03:53:35;;;;;;;11.35;5.53;;;14.80;97.40;;;;;;5013424;28;20390;-74
2021/10/02 03:56:01;;;;;;;13.60;6.47;;;14.90;97.40;;;;;;5027658;28;20498;-75
2021/10/02 03:58:27;;;;;;;9.07;5.40;;;14.80;97.30;;;;;;5013206;28;20101;-75
2021/10/02 04:00:53;;;;;;;10.32;6.05;;;14.80;97.40;;;;;;5027205;28;20116;-75
2021/10/02 04:03:19;;;;;;;10.13;6.07;;;14.80;97.40;;;;;;5012868;28;20097;-74
2021/10/02 04:05:44;;;;;;;10.00;5.65;;;14.80;97.40;;;;;;5012819;28;20112;-75
2021/10/02 04:08:10;;;;;;;9.50;5.40;;;14.80;97.40;;;;;;5011967;28;20061;-75
2021/10/02 04:10:36;;;;;;;10.73;5.03;;;14.80;97.40;;;;;;5012808;28;20451;-75
2021/10/02 04:13:01;;;;;;;12.70;5.68;;;14.80;97.40;;;;;;5010924;28;20446;-76
2021/10/02 04:15:27;;;;;;;11.07;5.88;;;14.80;97.40;;;;;;5027951;28;20049;-77
2021/10/02 04:17:53;;;;;;;8.85;5.22;;;14.80;97.40;;;;;;5012485;28;20021;-77
2021/10/02 04:20:18;;;;;;;13.35;6.78;;;14.80;97.30;;;;;;5012174;28;20120;-77
2021/10/02 04:22:44;;;;;;;12.65;5.65;;;14.80;97.40;;;;;;5012375;28;20152;-77
2021/10/02 04:25:10;;;;;;;10.73;5.85;;;14.70;97.50;;;;;;5011015;28;20436;-76
2021/10/02 04:27:35;;;;;;;11.02;6.28;;;14.60;97.50;;;;;;5012272;28;20080;-75
2021/10/02 04:30:01;;;;;;;10.93;6.38;;;14.60;97.60;;;;;;5027179;28;20057;-75
2021/10/02 04:32:27;;;;;;;13.40;6.70;;;14.60;97.60;;;;;;5027691;28;20388;-75
2021/10/02 04:34:53;;;;;;;13.25;6.78;;;14.60;97.60;;;;;;5012504;28;20156;-75
2021/10/02 04:37:18;;;;;;;8.95;4.90;;;14.60;97.60;;;;;;5027118;28;20088;-75
2021/10/02 04:39:44;;;;;;;11.32;6.00;;;14.70;97.60;;;;;;5027236;28;20026;-77
2021/10/02 04:42:10;;;;;;;11.50;6.63;;;14.70;97.60;;;;;;5011890;28;20034;-77
2021/10/02 04:44:36;;;;;;;13.90;7.15;;;14.70;97.50;;;;;;5012316;28;20449;-77
2021/10/02 04:47:02;;;;;;;10.90;6.63;;;14.70;97.50;;;;;;5010345;28;20057;-77
2021/10/02 04:49:27;;;;;;;12.18;6.07;;;14.70;97.50;;;;;;5027048;28;20459;-77
2021/10/02 04:51:53;;;;;;;12.07;6.88;;;14.70;97.50;;;;;;5027367;28;20026;-75
2021/10/02 04:54:19;;;;;;;12.88;6.32;;;14.70;97.50;;;;;;5011664;28;20026;-75
2021/10/02 04:56:45;;;;;;;13.70;7.43;;;14.70;97.50;;;;;;5012199;28;20470;-75
2021/10/02 04:59:11;;;;;;;8.52;4.78;;;14.70;97.50;;;;;;5011550;28;20022;-74
2021/10/02 05:01:37;;;;;;;11.52;6.47;;;14.70;97.50;;;;;;5027356;28;20241;-76
2021/10/02 05:04:03;;;;;;;14.32;6.63;;;14.70;97.50;;;;;;5011552;28;20037;-76
2021/10/02 05:06:28;;;;;;;14.35;8.18;;;14.70;97.50;;;;;;5011919;28;20026;-76
2021/10/02 05:08:54;;;;;;;13.88;7.32;;;14.70;97.50;;;;;;5012435;28;20026;-75
2021/10/02 05:11:20;;;;;;;11.82;6.13;;;14.70;97.50;;;;;;5011558;28;20460;-75
2021/10/02 05:13:46;;;;;;;12.55;7.07;;;14.70;97.50;;;;;;5027179;28;20030;-75
2021/10/02 05:16:12;;;;;;;16.05;7.63;;;14.70;97.50;;;;;;5011755;28;20040;-75
2021/10/02 05:18:38;;;;;;;13.23;6.88;;;14.60;97.50;;;;;;5012258;28;20374;-75
2021/10/02 05:21:04;;;;;;;13.18;7.22;;;14.60;97.50;;;;;;5011449;28;20021;-76
2021/10/02 05:23:29;;;;;;;11.55;6.63;;;14.60;97.50;;;;;;5027084;28;20116;-76
2021/10/02 05:25:55;;;;;;;10.98;6.60;;;14.60;97.60;;;;;;5027085;28;20026;-75
2021/10/02 05:28:22;;;;;;;13.25;6.50;;;14.60;97.60;;;;;;5011027;28;20026;-76
2021/10/02 05:30:48;;;;;;;11.18;5.97;;;14.60;97.60;;;;;;5010742;28;20378;-75
2021/10/02 05:33:14;;;;;;;11.77;6.32;;;14.50;97.60;;;;;;5011035;28;20462;-75
2021/10/02 05:35:40;;;;;;;11.77;5.75;;;14.40;97.70;;;;;;5012035;28;20504;-75
2021/10/02 05:38:05;;;;;;;9.07;5.60;;;14.40;97.70;;;;;;5015277;28;20455;-75
2021/10/02 05:40:32;;;;;;;10.90;6.22;;;14.40;97.80;;;;;;5030461;28;20133;-75
2021/10/02 05:42:59;;;;;;;10.82;5.93;;;14.30;97.80;;;;;;5015478;28;20054;-77
2021/10/02 05:45:25;;;;;;;9.70;5.57;;;14.30;97.80;;;;;;5015784;28;20033;-76
2021/10/02 05:47:51;;;;;;;9.40;5.50;;;14.30;97.80;;;;;;5030635;28;20167;-76
2021/10/02 05:50:17;;;;;;;9.77;5.70;;;14.40;97.80;;;;;;5015170;28;20109;-76
2021/10/02 05:52:43;;;;;;;9.50;4.80;;;14.40;97.80;;;;;;5015648;28;20022;-76
2021/10/02 05:55:10;;;;;;;9.07;5.13;;;14.30;97.80;;;;;;5013352;28;20037;-76
2021/10/02 05:57:36;;;;;;;9.20;5.28;;;14.30;97.80;;;;;;5030720;28;20029;-77
2021/10/02 06:00:07;;;;;;;10.55;5.47;;;14.30;97.90;;;;;;5013275;28;20026;-75
2021/10/02 06:02:33;;;;;;;10.15;5.35;;;14.20;98.00;;;;;;5030470;28;20022;-77
2021/10/02 06:04:58;;;;;;;9.30;5.38;;;14.20;98.10;;;;;;5014764;28;20398;-77
2021/10/02 06:07:24;;;;;;;8.68;5.07;;;14.10;98.10;;;;;;5014500;28;20033;-77
2021/10/02 06:09:51;;;;;;;8.20;4.75;;;14.10;98.10;;;;;;5030213;28;20018;-77
2021/10/02 06:12:18;;;;;;;8.50;5.00;;;14.00;98.10;;;;;;5014384;28;20030;-76
2021/10/02 06:14:43;;;;;;;8.30;4.93;;;14.00;98.10;;;;;;5014996;28;20057;-77
2021/10/02 06:17:09;;;;;;;9.00;4.90;;;14.00;98.10;;;;;;5014140;28;20061;-77
2021/10/02 06:19:35;;;;;;;9.60;5.53;;;14.00;98.10;;;;;;5014588;28;20549;-77
2021/10/02 06:22:00;;;;;;;8.07;4.90;;;14.00;98.10;;;;;;5013634;28;20018;-77
2021/10/02 06:24:27;;;;;;;11.93;5.22;;;14.00;98.00;;;;;;5014090;28;20411;-77
2021/10/02 06:26:52;;;;;;;11.90;5.13;;;14.00;98.00;;;;;;5029947;28;20112;-76
2021/10/02 06:29:18;;;;;;;9.50;5.00;;;14.00;98.00;;;;;;5013818;28;20100;-76
2021/10/02 06:31:44;;;;;;;11.25;5.32;;;14.00;97.90;;;;;;5040409;28;20029;-75
2021/10/02 06:34:09;;;;;;;11.13;5.65;;;14.00;97.90;;;;;;5014547;28;20467;-76
2021/10/02 06:36:35;;;;;;;10.05;5.70;;;14.00;97.90;;;;;;5013191;28;20375;-73
2021/10/02 06:39:02;;;;;;;11.10;6.07;;;14.00;97.90;;;;;;5015143;28;20029;-75
2021/10/02 06:41:28;;;;;;;9.35;5.55;;;14.00;97.90;;;;;;5022707;28;20046;-76
2021/10/02 06:43:54;;;;;;;9.63;5.05;;;14.00;97.90;;;;;;5019530;28;20459;-77
2021/10/02 06:46:19;;;;;;;9.77;5.50;;;14.10;97.90;;;;;;5013676;28;20033;-77
2021/10/02 06:48:45;;;;;;;11.75;5.28;;;14.00;97.90;;;;;;5013622;28;20022;-76
2021/10/02 06:51:11;;;;;;;10.02;5.55;;;14.00;97.80;;;;;;5012561;28;20030;-76
2021/10/02 06:53:37;;;;;;;10.02;5.82;;;14.10;97.80;;;;;;5029491;28;20033;-77
2021/10/02 06:56:03;;;;;;;9.45;5.20;;;14.10;97.80;;;;;;5014593;28;20029;-75
2021/10/02 06:58:28;;;;;;;9.73;5.95;;;14.10;97.80;;;;;;5028588;28;20026;-75
2021/10/02 07:00:54;;;;;;;10.65;5.65;;;14.10;97.80;;;;;;5014600;28;20378;-75
2021/10/02 07:03:20;;;;;;;8.02;5.22;;;14.10;97.70;;;;;;5013190;28;20029;-77
2021/10/02 07:05:45;;;;;;;11.45;5.65;;;14.10;97.70;;;;;;5013696;28;20088;-74
2021/10/02 07:08:11;;;;;;;10.18;5.95;;;14.20;97.70;;;;;;5013360;28;20056;-74
2021/10/02 07:10:37;;;;;;;10.27;5.55;;;14.20;97.60;;;;;;5013994;28;20105;-77
2021/10/02 07:13:02;;;;;;;10.55;5.90;;;14.20;97.60;;;;;;5013910;28;20141;-75
2021/10/02 07:15:29;;;;;;;11.57;6.05;;;14.20;97.50;;;;;;5013578;28;20034;-75
2021/10/02 07:17:55;;;;;;;12.63;5.65;;;14.30;97.50;;;;;;5013765;28;20022;-76
2021/10/02 07:20:25;;;;;;;12.15;6.20;;;14.40;97.40;;;;;;5013443;28;20032;-75
2021/10/02 07:22:51;;;;;;;10.60;6.00;;;14.40;97.30;;;;;;5012410;28;20026;-76
2021/10/02 07:25:17;;;;;;;11.93;5.95;;;14.50;97.20;;;;;;5013059;28;20033;-75
2021/10/02 07:27:44;;;;;;;8.40;5.00;;;14.50;97.20;;;;;;5028658;28;20026;-75
2021/10/02 07:30:12;;;;;;;10.50;6.07;;;14.60;97.10;;;;;;5013076;28;20025;-75
2021/10/02 07:32:39;;;;;;;9.40;4.70;;;14.60;97.10;;;;;;5028804;28;20026;-76
2021/10/02 07:35:06;;;;;;;14.73;7.03;;;14.70;97.00;;;;;;5013188;28;20459;-76
2021/10/02 07:37:32;;;;;;;12.75;5.38;;;14.70;97.00;;;;;;5027877;28;20071;-75
2021/10/02 07:39:58;;;;;;;11.10;6.18;;;14.80;96.90;;;;;;5013114;28;20052;-75
2021/10/02 07:42:24;;;;;;;12.40;7.30;;;14.80;96.70;;;;;;5012722;28;20343;-75
2021/10/02 07:45:02;;;;;;;10.00;5.72;;;14.80;96.60;;;;;;5013184;28;20080;-75
2021/10/02 07:47:31;;;;;;;12.07;6.05;;;14.80;96.60;;;;;;5012720;28;20109;-75
2021/10/02 07:49:57;;;;;;;15.48;6.90;;;14.90;96.50;;;;;;5012935;28;20057;-75
2021/10/02 07:52:25;;;;;;;12.88;6.63;;;14.90;96.40;;;;;;5012540;28;20139;-75
2021/10/02 07:54:52;;;;;;;12.05;6.55;;;14.90;96.50;;;;;;5013177;28;20033;-76
2021/10/02 07:57:19;;;;;;;12.70;7.00;;;14.90;96.50;;;;;;5027577;28;20056;-77
2021/10/02 07:59:46;;;;;;;9.40;5.55;;;14.90;96.40;;;;;;5012078;28;20026;-76
2021/10/02 08:02:17;;;;;;;11.52;6.28;;;14.90;96.40;;;;;;5012398;28;20026;-76
2021/10/02 08:04:44;;;;;;;10.63;6.85;;;14.90;96.30;;;;;;5013010;28;20319;-77
2021/10/02 08:07:12;;;;;;;16.55;6.85;;;15.00;96.20;;;;;;5012419;28;20435;-76
2021/10/02 08:09:39;;;;;;;9.90;5.28;;;15.00;96.20;;;;;;5012595;28;20033;-77
2021/10/02 08:12:05;;;;;;;11.13;6.80;;;15.00;96.20;;;;;;5012752;28;20473;-75
2021/10/02 08:14:31;;;;;;;11.77;6.72;;;15.00;96.20;;;;;;5010812;28;20124;-75
2021/10/02 08:16:58;;;;;;;9.50;5.50;;;15.00;96.10;;;;;;5011411;28;20022;-76
2021/10/02 08:19:23;;;;;;;11.20;6.25;;;15.00;96.20;;;;;;5012055;28;20026;-75
2021/10/02 08:21:51;;;;;;;10.65;5.25;;;15.00;96.20;;;;;;5012205;28;20022;-76
2021/10/02 08:24:19;;;;;;;10.18;5.60;;;15.10;96.20;;;;;;5011942;28;20026;-75
2021/10/02 08:26:49;;;;;;;10.38;5.32;;;15.10;96.10;;;;;;5027867;28;20029;-76
2021/10/02 08:29:15;;;;;;;8.82;5.32;;;15.10;96.10;;;;;;5010387;28;20026;-76
2021/10/02 08:31:42;;;;;;;10.27;6.18;;;15.20;96.00;;;;;;5012232;28;20028;-75
2021/10/02 08:34:07;;;;;;;12.60;6.65;;;15.20;96.00;;;;;;5012198;28;20484;-77
2021/10/02 08:36:33;;;;;;;10.35;6.43;;;15.20;96.00;;;;;;5011826;28;20053;-76
2021/10/02 08:38:59;;;;;;;9.82;5.00;;;15.20;95.90;;;;;;5012541;28;20021;-76
2021/10/02 08:41:25;;;;;;;15.05;5.28;;;15.30;96.00;;;;;;5026802;28;20046;-75
2021/10/02 08:43:52;;;;;;;9.68;6.00;;;15.30;95.90;;;;;;5027076;28;20026;-76
2021/10/02 08:46:18;;;;;;;7.95;5.15;;;15.40;95.80;;;;;;5011754;28;20033;-76
2021/10/02 08:49:12;;;;;;;9.82;5.88;;;15.40;95.70;;;;;;5012352;28;20029;-77
2021/10/02 08:51:41;;;;;;;8.95;5.22;;;15.40;95.70;;;;;;5027344;28;20120;-75
2021/10/02 08:54:08;;;;;;;7.65;4.60;;;15.40;95.70;;;;;;5027013;28;20017;-75
2021/10/02 08:56:36;;;;;;;8.25;3.78;;;15.50;95.60;;;;;;5026745;28;20029;-76
2021/10/02 08:59:03;;;;;;;6.55;3.90;;;15.50;95.50;;;;;;5012108;28;20022;-76
2021/10/02 09:01:28;;;;;;;8.52;4.97;;;15.50;95.50;;;;;;5026688;28;20467;-77
2021/10/02 09:03:55;;;;;;;7.05;3.90;;;15.50;95.30;;;;;;5027204;28;20032;-76
2021/10/02 09:06:21;;;;;;;9.13;4.45;;;15.50;95.30;;;;;;5011583;28;20482;-76
2021/10/02 09:08:46;;;;;;;8.38;4.72;;;15.40;95.30;;;;;;5012077;28;20030;-76
2021/10/02 09:11:12;;;;;;;11.85;4.45;;;15.40;95.30;;;;;;5013430;28;20057;-76
2021/10/02 09:13:39;;;;;;;11.98;5.45;;;15.40;95.30;;;;;;5015549;28;20022;-76
2021/10/02 09:16:05;;;;;;;13.65;5.32;;;15.40;95.10;;;;;;5016083;28;20097;-76
2021/10/02 09:18:30;;;;;;;9.38;4.53;;;15.50;95.00;;;;;;5014137;28;20117;-76
2021/10/02 09:21:02;;;;;;;9.13;4.10;;;15.60;94.90;;;;;;5014646;28;20030;-76
2021/10/02 09:23:28;;;;;;;8.77;4.28;;;15.60;95.00;;;;;;5015368;28;20071;-76
2021/10/02 09:25:53;;;;;;;10.43;4.97;;;15.70;94.70;;;;;;5030844;28;20037;-76
2021/10/02 09:28:19;;;;;;;10.82;4.82;;;15.80;94.50;;;;;;5030300;28;20509;-76
2021/10/02 09:30:46;;;;;;;7.38;4.25;;;15.80;94.40;;;;;;5015822;28;20049;-76
2021/10/02 09:33:14;;;;;;;6.38;3.55;;;16.00;94.30;;;;;;5015635;28;20079;-77
2021/10/02 09:35:42;;;;;;;10.73;4.30;;;16.10;94.30;;;;;;5015104;28;20040;-77
2021/10/02 09:38:11;;;;;;;8.30;5.03;;;16.00;94.30;;;;;;5015379;28;20030;-77
2021/10/02 09:40:37;;;;;;;8.70;5.10;;;16.00;94.40;;;;;;5030029;28;20121;-77
2021/10/02 09:43:04;;;;;;;8.70;4.85;;;16.00;94.40;;;;;;5015609;28;20026;-77
2021/10/02 09:45:36;;;;;;;9.30;4.95;;;16.00;94.30;;;;;;5029997;28;20037;-77
2021/10/02 09:48:06;;;;;;;8.25;4.10;;;16.10;94.20;;;;;;5030693;28;20033;-77
2021/10/02 09:50:35;;;;;;;7.40;4.13;;;16.20;94.10;;;;;;5013220;28;20057;-77
2021/10/02 09:53:06;;;;;;;5.95;3.30;;;16.20;94.00;;;;;;5015517;28;20025;-76
2021/10/02 09:55:35;;;;;;;6.68;3.42;;;16.30;94.00;;;;;;5014751;28;20049;-76
2021/10/02 09:58:06;;;;;;;5.47;3.22;;;16.30;93.90;;;;;;5014970;28;20447;-76
2021/10/02 10:00:36;;;;;;;;;;;16.30;93.80;;;;;;5030177;28;20049;-77
2021/10/02 10:03:08;;;;;;;5.60;3.00;;;16.30;93.70;;;;;;5015279;28;20004;-77
2021/10/02 10:05:36;;;;;;;5.78;2.78;;;16.30;93.70;;;;;;5014478;28;20025;-77
2021/10/02 10:08:08;;;;;;;7.05;3.00;;;16.40;93.80;;;;;;5015035;28;20064;-77
2021/10/02 10:10:39;;;;;;;5.95;3.30;;;16.40;93.80;;;;;;5014658;28;20030;-76
2021/10/02 10:13:11;;;;;;;4.32;2.55;;;16.40;93.80;;;;;;5014708;28;20386;-76
2021/10/02 10:15:39;;;;;;;4.55;2.75;;;16.50;93.80;;;;;;5014363;28;20117;-76
2021/10/02 10:18:07;;;;;;;6.15;3.00;;;16.60;93.70;;;;;;5014847;28;20024;-76
2021/10/02 10:20:40;;;;;;;6.10;3.13;;;16.60;93.60;;;;;;5014130;28;20030;-76
2021/10/02 10:23:07;;;;;;;4.78;3.13;;;16.70;93.50;;;;;;5013851;28;20390;-76
2021/10/02 10:25:33;;;;;;;5.45;2.83;;;16.70;93.50;;;;;;5013973;28;20026;-76
2021/10/02 10:28:05;;;;;;;4.57;2.75;;;16.70;93.60;;;;;;5013372;28;20026;-76
2021/10/02 10:30:31;;;;;;;4.43;2.70;;;16.70;93.60;;;;;;5014021;28;20060;-76
2021/10/02 10:33:04;;;;;;;6.22;3.50;;;16.80;93.50;;;;;;5029867;28;20037;-76
2021/10/02 10:35:35;;;;;;;7.10;4.03;;;16.90;93.30;;;;;;5029000;28;20080;-76
2021/10/02 10:38:01;;;;;;;4.82;2.95;;;16.90;93.20;;;;;;5029788;28;20109;-77
2021/10/02 10:40:27;;;;;;;7.53;3.55;;;16.90;93.20;;;;;;5012455;28;20136;-78
2021/10/02 10:42:54;;;;;;;4.93;2.80;;;16.80;93.10;;;;;;5014124;28;20100;-77
2021/10/02 10:45:22;;;;;;;3.83;2.50;;;16.80;93.10;;;;;;5012967;28;20026;-77
2021/10/02 10:47:48;;;;;;;4.10;2.33;;;16.70;93.20;;;;;;5014389;28;20091;-76
2021/10/02 10:50:14;;;;;;;5.13;2.90;;;16.70;93.20;;;;;;5014309;28;20041;-76
2021/10/02 10:52:42;;;;;;;4.80;2.83;;;16.70;93.10;;;;;;5012394;28;20467;-75
2021/10/02 10:55:13;;;;;;;5.18;2.35;;;16.80;93.10;;;;;;5014212;28;20479;-76
2021/10/02 10:57:45;;;;;;;4.93;2.67;;;16.90;93.10;;;;;;5013452;28;20042;-76
2021/10/02 11:00:12;;;;;;;2.65;1.90;;;17.00;93.20;;;;;;5012903;28;20052;-76
2021/10/02 11:02:42;;;;;;;2.28;1.75;;;17.10;92.80;;;;;;5012183;28;20022;-76
2021/10/02 11:05:43;;;;;;;3.88;1.70;;;17.20;92.60;;;;;;5012895;28;20025;-77
2021/10/02 11:08:20;;;;;;;5.38;2.10;;;17.30;92.50;;;;;;5012688;28;20045;-76
2021/10/02 11:10:54;;;;;;;3.00;1.65;;;17.40;92.30;;;;;;5028457;28;20418;-77
2021/10/02 11:13:40;;;;;;;5.35;2.10;;;17.40;92.10;;;;;;5013896;28;20033;-77
2021/10/02 11:16:29;;;;;;;2.42;1.80;;;17.50;92.10;;;;;;5028818;28;20474;-77
2021/10/02 11:18:55;;;;;;;2.45;1.50;;;17.50;92.10;;;;;;5013807;28;20542;-76
2021/10/02 11:21:21;;;;;;;2.78;1.60;;;17.50;92.00;;;;;;5013817;28;20064;-77
2021/10/02 11:24:15;;;;;;;2.30;1.27;;;17.40;92.00;;;;;;5013085;28;20022;-77
2021/10/02 11:26:46;;;;;;;1.75;1.08;;;17.40;92.10;;;;;;5011795;28;20037;-76
2021/10/02 11:29:19;;;;;;;2.22;1.30;;;17.40;92.10;;;;;;5012251;28;20024;-76
2021/10/02 11:31:46;;;;;;;2.80;1.35;;;17.40;91.90;;;;;;5011548;28;20030;-76
2021/10/02 11:34:30;;;;;;;6.50;1.48;;;17.30;92.00;;;;;;5013558;28;20026;-76
2021/10/02 11:36:56;;;;;;;3.75;1.38;;;17.20;92.00;;;;;;5028638;28;20549;-76
2021/10/02 11:39:31;;;;;;;1.60;1.08;;;17.20;92.00;;;;;;5028597;28;20109;-77
2021/10/02 11:42:12;;;;;;;2.53;1.40;;;17.10;92.00;;;;;;5013449;28;20124;-77
2021/10/02 11:44:50;;;;;;;3.33;1.10;;;17.20;92.10;;;;;;5027903;28;20037;-77
2021/10/02 11:47:37;;;;;;;3.22;1.20;;;17.30;92.10;;;;;;5028521;28;20422;-77
2021/10/02 11:50:12;;;;;;;2.25;1.10;;;17.40;92.00;;;;;;5012924;28;20125;-76
2021/10/02 11:52:43;;;;;;;2.40;1.05;;;17.60;91.90;;;;;;5012539;28;20084;-77
2021/10/02 11:55:34;;;;;;;3.00;1.20;;;17.70;91.80;;;;;;5013215;28;20141;-76
2021/10/02 11:58:09;;;;;;;4.32;1.17;;;17.90;91.70;;;;;;5013059;28;20026;-76
2021/10/02 12:00:39;;;;;;;5.72;1.90;;;18.00;91.50;;;;;;5012522;28;20069;-76
2021/10/02 12:03:06;;;;;;;2.30;1.20;;;18.00;91.30;;;;;;5027876;28;20022;-76
2021/10/02 12:05:33;;;;;;;1.60;1.10;;;18.00;91.30;;;;;;5012310;28;20371;-76
2021/10/02 12:07:59;;;;;;;1.70;1.08;;;17.90;91.40;;;;;;5012865;28;20467;-76
2021/10/02 12:10:25;;;;;;;1.55;1.02;;;17.90;91.60;;;;;;5012907;28;20022;-77
2021/10/02 12:12:51;;;;;;;2.25;1.00;;;17.90;91.60;;;;;;5011873;28;20064;-76
2021/10/02 12:15:30;;;;;;;1.38;0.98;;;17.90;91.60;;;;;;5012942;28;20057;-75
2021/10/02 12:17:56;;;;;;;3.38;1.33;;;18.10;91.50;;;;;;5012444;28;20037;-76
2021/10/02 12:20:39;;;;;;;2.42;1.15;;;18.20;91.50;;;;;;5012309;28;20033;-78
2021/10/02 12:23:05;;;;;;;2.42;1.35;;;18.30;91.20;;;;;;5028086;28;20045;-76
2021/10/02 12:25:31;;;;;;;2.55;1.05;;;18.40;90.80;;;;;;5011798;28;20034;-76
2021/10/02 12:27:57;;;;;;;4.20;1.30;;;18.40;90.60;;;;;;5027760;28;20048;-77
2021/10/02 12:30:23;;;;;;;2.25;1.02;;;18.50;90.60;;;;;;5011267;28;20426;-77
2021/10/02 12:32:59;;;;;;;1.42;0.80;;;18.50;90.50;;;;;;5012049;28;20950;-75
2021/10/02 12:35:25;;;;;;;2.35;1.05;;;18.50;90.60;;;;;;5012148;28;20034;-76
2021/10/02 12:37:52;;;;;;;1.85;0.93;;;18.40;90.80;;;;;;5026951;28;20070;-76
2021/10/02 12:40:19;;;;;;;1.85;1.10;;;18.30;90.80;;;;;;5027318;28;20054;-75
2021/10/02 12:42:47;;;;;;;1.50;0.90;;;18.20;91.00;;;;;;5010455;28;20018;-76
2021/10/02 12:45:16;;;;;;;1.77;0.82;;;18.10;91.10;;;;;;5026667;28;20030;-76
2021/10/02 12:47:53;;;;;;;3.55;1.10;;;18.20;91.10;;;;;;5011504;28;20116;-76
2021/10/02 12:50:28;;;;;;;2.05;1.02;;;18.10;91.10;;;;;;5027478;28;20080;-76
2021/10/02 12:52:56;;;;;;;1.63;1.10;;;18.10;91.10;;;;;;5011990;28;20026;-76
2021/10/02 12:55:22;;;;;;;2.45;1.20;;;18.00;91.20;;;;;;5010798;28;20521;-76
2021/10/02 12:57:49;;;;;;;2.13;1.20;;;18.00;91.20;;;;;;5026769;28;20458;-75
2021/10/02 13:00:16;;;;;;;2.70;1.20;;;17.90;91.30;;;;;;5010794;28;20094;-75
2021/10/02 13:03:04;;;;;;;2.97;1.30;;;17.80;91.40;;;;;;5011871;28;20072;-75
2021/10/02 13:05:36;;;;;;;1.83;1.13;;;17.80;91.50;;;;;;5012037;28;20033;-76
2021/10/02 13:08:07;;;;;;;1.98;0.93;;;17.70;91.70;;;;;;5010720;28;20049;-76
2021/10/02 13:10:35;;;;;;;1.27;1.10;;;17.70;91.70;;;;;;5026695;28;20018;-75
2021/10/02 13:13:18;;;;;;;2.10;1.00;;;17.80;91.80;;;;;;5012210;28;20026;-75
2021/10/02 13:15:48;;;;;;;1.60;1.00;;;17.80;91.70;;;;;;5026935;28;20025;-75
2021/10/02 13:18:28;;;;;;;2.30;0.95;;;17.90;91.70;;;;;;5027186;28;20109;-75
2021/10/02 13:20:57;;;;;;;1.63;1.20;;;17.90;91.70;;;;;;5011421;28;20064;-76
2021/10/02 13:23:33;;;;;;;2.63;1.08;;;17.90;91.60;;;;;;5012270;28;20137;-75
2021/10/02 13:26:20;;;;;;;1.90;0.90;;;18.00;91.60;;;;;;5027149;28;20029;-75
2021/10/02 13:28:48;;;;;;;1.30;0.95;;;18.00;91.60;;;;;;5010125;28;20026;-76
2021/10/02 13:31:14;;;;;;;1.73;1.10;;;18.00;91.60;;;;;;5012218;28;20079;-77
2021/10/02 13:33:41;;;;;;;0.80;0.80;;;17.90;91.60;;;;;;5011342;28;20060;-77
2021/10/02 13:36:18;;;;;;;1.45;0.70;;;17.90;91.70;;;;;;5011554;28;20029;-75
2021/10/02 13:38:44;;;;;;;0.85;0.80;;;17.90;91.80;;;;;;5026595;28;20026;-75
2021/10/02 13:41:12;;;;;;;1.33;0.90;;;17.90;91.90;;;;;;5011521;28;20054;-76
2021/10/02 13:43:59;;;;;;;1.23;0.88;;;17.90;91.90;;;;;;5026335;28;20022;-74
2021/10/02 13:46:44;;;;;;;1.88;0.90;;;18.00;91.90;;;;;;5011729;28;20049;-77
2021/10/02 13:49:14;;;;;;;2.22;0.85;;;18.00;91.90;;;;;;5010696;28;20072;-77
2021/10/02 13:51:42;;;;;;;1.90;1.10;;;18.00;91.90;;;;;;5011366;28;20026;-75